sensor_id;sensor_type;location;lat;lon;timestamp;P1;durP1;ratioP1;P2;durP2;ratioP2
37973;SDS011;23796;51.458;7.000;2023-03-01T00:01:09;8.32;;;5.47;;
37973;SDS011;23796;51.458;7.000;2023-03-01T00:03:44;11.15;;;5.68;;
37973;SDS011;23796;51.458;7.000;2023-03-01T00:06:10;9.30;;;5.00;;
37973;SDS011;23796;51.458;7.000;2023-03-01T00:08:37;9.02;;;5.47;;
37973;SDS011;23796;51.458;7.000;2023-03-01T00:11:03;8.00;;;4.88;;
37973;SDS011;23796;51.458;7.000;2023-03-01T00:13:35;9.75;;;5.68;;
37973;SDS011;23796;51.458;7.000;2023-03-01T00:16:06;8.93;;;5.28;;
37973;SDS011;23796;51.458;7.000;2023-03-01T00:18:33;7.97;;;5.10;;
37973;SDS011;23796;51.458;7.000;2023-03-01T00:21:00;7.90;;;4.78;;
37973;SDS011;23796;51.458;7.000;2023-03-01T00:23:26;8.93;;;5.28;;
37973;SDS011;23796;51.458;7.000;2023-03-01T00:25:52;8.02;;;5.05;;
37973;SDS011;23796;51.458;7.000;2023-03-01T00:28:19;7.65;;;4.90;;
37973;SDS011;23796;51.458;7.000;2023-03-01T00:30:45;8.18;;;5.22;;
37973;SDS011;23796;51.458;7.000;2023-03-01T00:33:14;8.45;;;5.38;;
37973;SDS011;23796;51.458;7.000;2023-03-01T00:35:40;7.25;;;4.60;;
37973;SDS011;23796;51.458;7.000;2023-03-01T00:38:06;7.90;;;4.82;;
37973;SDS011;23796;51.458;7.000;2023-03-01T00:40:32;9.25;;;5.50;;
37973;SDS011;23796;51.458;7.000;2023-03-01T00:42:59;8.02;;;4.72;;
37973;SDS011;23796;51.458;7.000;2023-03-01T00:45:25;7.78;;;4.70;;
37973;SDS011;23796;51.458;7.000;2023-03-01T00:47:51;8.65;;;5.13;;
37973;SDS011;23796;51.458;7.000;2023-03-01T00:50:21;8.23;;;4.70;;
37973;SDS011;23796;51.458;7.000;2023-03-01T00:52:51;8.57;;;4.72;;
37973;SDS011;23796;51.458;7.000;2023-03-01T00:55:20;5.68;;;3.78;;
37973;SDS011;23796;51.458;7.000;2023-03-01T00:57:48;8.27;;;4.97;;
37973;SDS011;23796;51.458;7.000;2023-03-01T01:00:14;8.32;;;4.68;;
37973;SDS011;23796;51.458;7.000;2023-03-01T01:02:40;7.45;;;4.65;;
37973;SDS011;23796;51.458;7.000;2023-03-01T01:05:08;7.95;;;5.18;;
37973;SDS011;23796;51.458;7.000;2023-03-01T01:07:34;7.30;;;4.93;;
37973;SDS011;23796;51.458;7.000;2023-03-01T01:10:00;6.97;;;4.70;;
37973;SDS011;23796;51.458;7.000;2023-03-01T01:12:26;8.63;;;5.28;;
37973;SDS011;23796;51.458;7.000;2023-03-01T01:14:51;8.50;;;4.82;;
37973;SDS011;23796;51.458;7.000;2023-03-01T01:17:17;8.93;;;4.88;;
37973;SDS011;23796;51.458;7.000;2023-03-01T01:19:45;7.30;;;4.68;;
37973;SDS011;23796;51.458;7.000;2023-03-01T01:22:13;9.70;;;4.65;;
37973;SDS011;23796;51.458;7.000;2023-03-01T01:24:43;7.55;;;4.90;;
37973;SDS011;23796;51.458;7.000;2023-03-01T01:27:11;8.50;;;5.57;;
37973;SDS011;23796;51.458;7.000;2023-03-01T01:29:36;6.60;;;4.72;;
37973;SDS011;23796;51.458;7.000;2023-03-01T01:32:02;8.80;;;5.55;;
37973;SDS011;23796;51.458;7.000;2023-03-01T01:34:28;8.43;;;5.75;;
37973;SDS011;23796;51.458;7.000;2023-03-01T01:36:54;8.32;;;5.35;;
37973;SDS011;23796;51.458;7.000;2023-03-01T01:39:22;8.05;;;4.95;;
37973;SDS011;23796;51.458;7.000;2023-03-01T01:41:48;7.57;;;5.05;;
37973;SDS011;23796;51.458;7.000;2023-03-01T01:47:05;11.05;;;5.15;;
37973;SDS011;23796;51.458;7.000;2023-03-01T01:54:49;8.15;;;5.18;;
37973;SDS011;23796;51.458;7.000;2023-03-01T01:57:37;8.00;;;5.28;;
37973;SDS011;23796;51.458;7.000;2023-03-01T02:00:24;9.25;;;6.30;;
37973;SDS011;23796;51.458;7.000;2023-03-01T02:02:55;8.38;;;5.35;;
37973;SDS011;23796;51.458;7.000;2023-03-01T02:08:21;9.00;;;5.60;;
37973;SDS011;23796;51.458;7.000;2023-03-01T02:10:50;8.65;;;5.25;;
37973;SDS011;23796;51.458;7.000;2023-03-01T02:13:20;7.28;;;5.00;;
37973;SDS011;23796;51.458;7.000;2023-03-01T02:18:16;6.88;;;4.43;;
37973;SDS011;23796;51.458;7.000;2023-03-01T02:23:30;7.97;;;5.20;;
37973;SDS011;23796;51.458;7.000;2023-03-01T02:28:40;7.63;;;4.97;;
37973;SDS011;23796;51.458;7.000;2023-03-01T02:31:10;7.68;;;5.28;;
37973;SDS011;23796;51.458;7.000;2023-03-01T02:33:57;10.07;;;5.50;;
37973;SDS011;23796;51.458;7.000;2023-03-01T02:36:25;12.48;;;4.63;;
37973;SDS011;23796;51.458;7.000;2023-03-01T02:38:55;7.47;;;4.85;;
37973;SDS011;23796;51.458;7.000;2023-03-01T02:41:23;9.40;;;5.43;;
37973;SDS011;23796;51.458;7.000;2023-03-01T02:43:51;7.97;;;5.03;;
37973;SDS011;23796;51.458;7.000;2023-03-01T02:46:18;8.48;;;5.68;;
37973;SDS011;23796;51.458;7.000;2023-03-01T02:48:52;8.73;;;5.28;;
37973;SDS011;23796;51.458;7.000;2023-03-01T02:57:03;9.10;;;5.35;;
37973;SDS011;23796;51.458;7.000;2023-03-01T02:59:31;8.32;;;4.88;;
37973;SDS011;23796;51.458;7.000;2023-03-01T03:02:04;9.52;;;6.07;;
37973;SDS011;23796;51.458;7.000;2023-03-01T03:04:30;9.98;;;5.80;;
37973;SDS011;23796;51.458;7.000;2023-03-01T03:06:56;7.55;;;5.55;;
37973;SDS011;23796;51.458;7.000;2023-03-01T03:09:24;8.85;;;5.50;;
37973;SDS011;23796;51.458;7.000;2023-03-01T03:11:50;10.68;;;5.80;;
37973;SDS011;23796;51.458;7.000;2023-03-01T03:14:16;6.88;;;5.18;;
37973;SDS011;23796;51.458;7.000;2023-03-01T03:16:43;8.30;;;5.60;;
37973;SDS011;23796;51.458;7.000;2023-03-01T03:19:11;12.15;;;5.82;;
37973;SDS011;23796;51.458;7.000;2023-03-01T03:21:37;9.23;;;6.43;;
37973;SDS011;23796;51.458;7.000;2023-03-01T03:24:03;8.30;;;5.22;;
37973;SDS011;23796;51.458;7.000;2023-03-01T03:26:30;9.30;;;5.90;;
37973;SDS011;23796;51.458;7.000;2023-03-01T03:28:58;8.00;;;5.60;;
37973;SDS011;23796;51.458;7.000;2023-03-01T03:31:24;8.23;;;5.22;;
37973;SDS011;23796;51.458;7.000;2023-03-01T03:33:49;7.43;;;5.70;;
37973;SDS011;23796;51.458;7.000;2023-03-01T03:36:22;8.18;;;5.47;;
37973;SDS011;23796;51.458;7.000;2023-03-01T03:38:51;9.30;;;5.93;;
37973;SDS011;23796;51.458;7.000;2023-03-01T03:41:19;10.98;;;6.28;;
37973;SDS011;23796;51.458;7.000;2023-03-01T03:43:45;8.68;;;5.45;;
37973;SDS011;23796;51.458;7.000;2023-03-01T03:46:12;11.95;;;7.05;;
37973;SDS011;23796;51.458;7.000;2023-03-01T03:48:39;11.30;;;6.20;;
37973;SDS011;23796;51.458;7.000;2023-03-01T03:51:16;7.18;;;5.53;;
37973;SDS011;23796;51.458;7.000;2023-03-01T03:53:42;7.18;;;5.28;;
37973;SDS011;23796;51.458;7.000;2023-03-01T03:56:08;7.45;;;5.13;;
37973;SDS011;23796;51.458;7.000;2023-03-01T03:58:37;9.50;;;6.10;;
37973;SDS011;23796;51.458;7.000;2023-03-01T04:01:03;9.45;;;5.68;;
37973;SDS011;23796;51.458;7.000;2023-03-01T04:03:32;8.27;;;5.95;;
37973;SDS011;23796;51.458;7.000;2023-03-01T04:06:00;9.30;;;5.72;;
37973;SDS011;23796;51.458;7.000;2023-03-01T04:08:26;9.45;;;5.38;;
37973;SDS011;23796;51.458;7.000;2023-03-01T04:10:56;10.20;;;6.65;;
37973;SDS011;23796;51.458;7.000;2023-03-01T04:13:46;7.28;;;5.40;;
37973;SDS011;23796;51.458;7.000;2023-03-01T04:16:12;8.65;;;6.05;;
37973;SDS011;23796;51.458;7.000;2023-03-01T04:18:37;8.95;;;5.55;;
37973;SDS011;23796;51.458;7.000;2023-03-01T04:21:03;12.80;;;6.40;;
37973;SDS011;23796;51.458;7.000;2023-03-01T04:23:29;11.48;;;6.60;;
37973;SDS011;23796;51.458;7.000;2023-03-01T04:25:55;9.95;;;6.53;;
37973;SDS011;23796;51.458;7.000;2023-03-01T04:30:53;8.95;;;5.95;;
37973;SDS011;23796;51.458;7.000;2023-03-01T04:33:19;9.35;;;6.10;;
37973;SDS011;23796;51.458;7.000;2023-03-01T04:35:46;10.63;;;6.65;;
37973;SDS011;23796;51.458;7.000;2023-03-01T04:38:14;9.50;;;5.78;;
37973;SDS011;23796;51.458;7.000;2023-03-01T04:40:40;10.52;;;6.32;;
37973;SDS011;23796;51.458;7.000;2023-03-01T04:43:08;11.27;;;6.85;;
37973;SDS011;23796;51.458;7.000;2023-03-01T04:45:35;8.55;;;5.90;;
37973;SDS011;23796;51.458;7.000;2023-03-01T04:48:01;9.25;;;7.22;;
37973;SDS011;23796;51.458;7.000;2023-03-01T04:50:28;11.18;;;7.05;;
37973;SDS011;23796;51.458;7.000;2023-03-01T04:52:54;10.00;;;6.72;;
37973;SDS011;23796;51.458;7.000;2023-03-01T04:55:23;9.27;;;5.75;;
37973;SDS011;23796;51.458;7.000;2023-03-01T04:57:52;8.10;;;5.68;;
37973;SDS011;23796;51.458;7.000;2023-03-01T05:00:21;9.85;;;6.43;;
37973;SDS011;23796;51.458;7.000;2023-03-01T05:07:50;8.93;;;5.75;;
37973;SDS011;23796;51.458;7.000;2023-03-01T05:10:17;7.80;;;5.60;;
37973;SDS011;23796;51.458;7.000;2023-03-01T05:12:46;8.65;;;6.28;;
37973;SDS011;23796;51.458;7.000;2023-03-01T05:15:11;10.48;;;7.05;;
37973;SDS011;23796;51.458;7.000;2023-03-01T05:17:37;11.80;;;6.07;;
37973;SDS011;23796;51.458;7.000;2023-03-01T05:20:05;10.73;;;6.32;;
37973;SDS011;23796;51.458;7.000;2023-03-01T05:22:35;10.20;;;6.50;;
37973;SDS011;23796;51.458;7.000;2023-03-01T05:25:01;12.88;;;6.60;;
37973;SDS011;23796;51.458;7.000;2023-03-01T05:27:27;9.40;;;6.22;;
37973;SDS011;23796;51.458;7.000;2023-03-01T05:29:54;7.72;;;5.35;;
37973;SDS011;23796;51.458;7.000;2023-03-01T05:32:20;9.32;;;6.00;;
37973;SDS011;23796;51.458;7.000;2023-03-01T05:34:48;10.38;;;6.57;;
37973;SDS011;23796;51.458;7.000;2023-03-01T05:37:17;19.23;;;8.40;;
37973;SDS011;23796;51.458;7.000;2023-03-01T05:39:42;11.07;;;6.82;;
37973;SDS011;23796;51.458;7.000;2023-03-01T05:42:10;9.13;;;6.00;;
37973;SDS011;23796;51.458;7.000;2023-03-01T05:44:36;8.55;;;6.00;;
37973;SDS011;23796;51.458;7.000;2023-03-01T05:47:02;10.10;;;6.10;;
37973;SDS011;23796;51.458;7.000;2023-03-01T05:49:28;8.55;;;5.97;;
37973;SDS011;23796;51.458;7.000;2023-03-01T05:51:54;11.38;;;6.43;;
37973;SDS011;23796;51.458;7.000;2023-03-01T05:54:22;10.13;;;6.22;;
37973;SDS011;23796;51.458;7.000;2023-03-01T05:56:50;8.95;;;6.03;;
37973;SDS011;23796;51.458;7.000;2023-03-01T05:59:16;10.90;;;6.35;;
37973;SDS011;23796;51.458;7.000;2023-03-01T06:01:41;9.80;;;6.40;;
37973;SDS011;23796;51.458;7.000;2023-03-01T06:04:07;9.60;;;6.03;;
37973;SDS011;23796;51.458;7.000;2023-03-01T06:06:36;10.40;;;6.47;;
37973;SDS011;23796;51.458;7.000;2023-03-01T06:09:05;11.07;;;6.60;;
37973;SDS011;23796;51.458;7.000;2023-03-01T06:11:33;9.82;;;6.60;;
37973;SDS011;23796;51.458;7.000;2023-03-01T06:13:59;10.05;;;6.97;;
37973;SDS011;23796;51.458;7.000;2023-03-01T06:16:25;8.25;;;5.95;;
37973;SDS011;23796;51.458;7.000;2023-03-01T06:18:53;8.38;;;6.50;;
37973;SDS011;23796;51.458;7.000;2023-03-01T06:21:19;8.70;;;6.38;;
37973;SDS011;23796;51.458;7.000;2023-03-01T06:23:44;10.80;;;6.25;;
37973;SDS011;23796;51.458;7.000;2023-03-01T06:26:10;11.07;;;7.10;;
37973;SDS011;23796;51.458;7.000;2023-03-01T06:28:35;10.38;;;6.75;;
37973;SDS011;23796;51.458;7.000;2023-03-01T06:31:01;10.45;;;6.43;;
37973;SDS011;23796;51.458;7.000;2023-03-01T06:33:27;14.60;;;7.03;;
37973;SDS011;23796;51.458;7.000;2023-03-01T06:35:55;11.48;;;7.00;;
37973;SDS011;23796;51.458;7.000;2023-03-01T06:38:21;9.18;;;7.15;;
37973;SDS011;23796;51.458;7.000;2023-03-01T06:40:53;11.02;;;6.70;;
37973;SDS011;23796;51.458;7.000;2023-03-01T06:43:20;12.43;;;7.28;;
37973;SDS011;23796;51.458;7.000;2023-03-01T06:45:46;8.52;;;6.47;;
37973;SDS011;23796;51.458;7.000;2023-03-01T06:48:11;9.07;;;6.35;;
37973;SDS011;23796;51.458;7.000;2023-03-01T06:50:39;10.35;;;7.10;;
37973;SDS011;23796;51.458;7.000;2023-03-01T06:53:05;9.38;;;6.30;;
37973;SDS011;23796;51.458;7.000;2023-03-01T06:55:31;9.63;;;6.75;;
37973;SDS011;23796;51.458;7.000;2023-03-01T06:57:57;10.25;;;6.72;;
37973;SDS011;23796;51.458;7.000;2023-03-01T07:00:27;9.88;;;6.85;;
37973;SDS011;23796;51.458;7.000;2023-03-01T07:02:59;10.30;;;6.82;;
37973;SDS011;23796;51.458;7.000;2023-03-01T07:05:27;12.27;;;7.32;;
37973;SDS011;23796;51.458;7.000;2023-03-01T07:07:53;11.73;;;6.82;;
37973;SDS011;23796;51.458;7.000;2023-03-01T07:10:20;12.68;;;6.93;;
37973;SDS011;23796;51.458;7.000;2023-03-01T07:12:46;10.32;;;7.03;;
37973;SDS011;23796;51.458;7.000;2023-03-01T07:15:11;11.60;;;7.93;;
37973;SDS011;23796;51.458;7.000;2023-03-01T07:17:37;10.55;;;6.35;;
37973;SDS011;23796;51.458;7.000;2023-03-01T07:20:03;9.00;;;6.60;;
37973;SDS011;23796;51.458;7.000;2023-03-01T07:22:29;9.48;;;7.18;;
37973;SDS011;23796;51.458;7.000;2023-03-01T07:24:54;9.48;;;6.85;;
37973;SDS011;23796;51.458;7.000;2023-03-01T07:27:20;14.40;;;6.97;;
37973;SDS011;23796;51.458;7.000;2023-03-01T07:29:45;9.20;;;6.25;;
37973;SDS011;23796;51.458;7.000;2023-03-01T07:32:11;11.73;;;6.80;;
37973;SDS011;23796;51.458;7.000;2023-03-01T07:34:39;10.35;;;6.82;;
37973;SDS011;23796;51.458;7.000;2023-03-01T07:37:04;9.98;;;6.93;;
37973;SDS011;23796;51.458;7.000;2023-03-01T07:39:30;10.95;;;7.70;;
37973;SDS011;23796;51.458;7.000;2023-03-01T07:41:58;16.15;;;7.63;;
37973;SDS011;23796;51.458;7.000;2023-03-01T07:44:24;11.55;;;7.80;;
37973;SDS011;23796;51.458;7.000;2023-03-01T07:46:49;11.88;;;7.10;;
37973;SDS011;23796;51.458;7.000;2023-03-01T07:49:17;13.20;;;9.27;;
37973;SDS011;23796;51.458;7.000;2023-03-01T07:51:42;10.20;;;7.47;;
37973;SDS011;23796;51.458;7.000;2023-03-01T07:54:08;11.00;;;8.10;;
37973;SDS011;23796;51.458;7.000;2023-03-01T07:56:34;10.90;;;7.15;;
37973;SDS011;23796;51.458;7.000;2023-03-01T07:59:00;17.27;;;8.10;;
37973;SDS011;23796;51.458;7.000;2023-03-01T08:01:25;9.70;;;6.95;;
37973;SDS011;23796;51.458;7.000;2023-03-01T08:03:51;9.98;;;6.70;;
37973;SDS011;23796;51.458;7.000;2023-03-01T08:06:17;10.45;;;6.55;;
37973;SDS011;23796;51.458;7.000;2023-03-01T08:08:43;10.77;;;7.10;;
37973;SDS011;23796;51.458;7.000;2023-03-01T08:11:10;11.15;;;7.38;;
37973;SDS011;23796;51.458;7.000;2023-03-01T08:13:37;10.50;;;6.63;;
37973;SDS011;23796;51.458;7.000;2023-03-01T08:16:04;12.60;;;7.25;;
37973;SDS011;23796;51.458;7.000;2023-03-01T08:18:35;11.43;;;6.78;;
37973;SDS011;23796;51.458;7.000;2023-03-01T08:21:03;14.88;;;7.68;;
37973;SDS011;23796;51.458;7.000;2023-03-01T08:23:32;9.18;;;6.78;;
37973;SDS011;23796;51.458;7.000;2023-03-01T08:28:32;10.43;;;7.10;;
37973;SDS011;23796;51.458;7.000;2023-03-01T08:30:58;9.48;;;7.18;;
37973;SDS011;23796;51.458;7.000;2023-03-01T08:33:23;12.05;;;7.50;;
37973;SDS011;23796;51.458;7.000;2023-03-01T08:35:49;10.88;;;7.80;;
37973;SDS011;23796;51.458;7.000;2023-03-01T08:38:15;8.63;;;6.60;;
37973;SDS011;23796;51.458;7.000;2023-03-01T08:40:40;12.18;;;6.93;;
37973;SDS011;23796;51.458;7.000;2023-03-01T08:43:06;12.90;;;6.30;;
37973;SDS011;23796;51.458;7.000;2023-03-01T08:45:31;11.68;;;6.68;;
37973;SDS011;23796;51.458;7.000;2023-03-01T08:47:57;10.35;;;7.18;;
37973;SDS011;23796;51.458;7.000;2023-03-01T08:50:23;12.20;;;6.30;;
37973;SDS011;23796;51.458;7.000;2023-03-01T08:52:49;8.82;;;6.38;;
37973;SDS011;23796;51.458;7.000;2023-03-01T08:55:15;10.63;;;6.65;;
37973;SDS011;23796;51.458;7.000;2023-03-01T08:57:44;10.43;;;7.03;;
37973;SDS011;23796;51.458;7.000;2023-03-01T09:00:12;11.43;;;7.00;;
37973;SDS011;23796;51.458;7.000;2023-03-01T09:02:39;8.77;;;5.93;;
37973;SDS011;23796;51.458;7.000;2023-03-01T09:05:05;10.80;;;5.90;;
37973;SDS011;23796;51.458;7.000;2023-03-01T09:07:35;10.23;;;6.28;;
37973;SDS011;23796;51.458;7.000;2023-03-01T09:10:01;10.93;;;5.93;;
37973;SDS011;23796;51.458;7.000;2023-03-01T09:12:27;10.70;;;5.50;;
37973;SDS011;23796;51.458;7.000;2023-03-01T09:14:52;9.77;;;6.18;;
37973;SDS011;23796;51.458;7.000;2023-03-01T09:17:18;11.93;;;6.25;;
37973;SDS011;23796;51.458;7.000;2023-03-01T09:19:48;14.45;;;5.97;;
37973;SDS011;23796;51.458;7.000;2023-03-01T09:22:14;9.65;;;5.78;;
37973;SDS011;23796;51.458;7.000;2023-03-01T09:24:42;10.15;;;5.30;;
37973;SDS011;23796;51.458;7.000;2023-03-01T09:27:07;7.80;;;5.38;;
37973;SDS011;23796;51.458;7.000;2023-03-01T09:29:33;7.00;;;4.82;;
37973;SDS011;23796;51.458;7.000;2023-03-01T09:32:02;7.38;;;4.88;;
37973;SDS011;23796;51.458;7.000;2023-03-01T09:34:30;8.75;;;5.70;;
37973;SDS011;23796;51.458;7.000;2023-03-01T09:36:57;11.00;;;6.32;;
37973;SDS011;23796;51.458;7.000;2023-03-01T09:39:23;8.35;;;5.20;;
37973;SDS011;23796;51.458;7.000;2023-03-01T09:41:50;8.80;;;4.90;;
37973;SDS011;23796;51.458;7.000;2023-03-01T09:47:26;9.38;;;6.32;;
37973;SDS011;23796;51.458;7.000;2023-03-01T09:52:42;8.55;;;4.65;;
37973;SDS011;23796;51.458;7.000;2023-03-01T09:55:37;7.70;;;4.82;;
37973;SDS011;23796;51.458;7.000;2023-03-01T10:01:34;8.25;;;5.15;;
37973;SDS011;23796;51.458;7.000;2023-03-01T10:04:18;9.30;;;5.88;;
37973;SDS011;23796;51.458;7.000;2023-03-01T10:09:36;8.90;;;4.97;;
37973;SDS011;23796;51.458;7.000;2023-03-01T10:12:13;7.45;;;4.88;;
37973;SDS011;23796;51.458;7.000;2023-03-01T10:15:25;8.48;;;4.60;;
37973;SDS011;23796;51.458;7.000;2023-03-01T10:17:37;9.05;;;5.55;;
37973;SDS011;23796;51.458;7.000;2023-03-01T10:22:43;8.75;;;5.00;;
37973;SDS011;23796;51.458;7.000;2023-03-01T10:25:15;6.80;;;4.82;;
37973;SDS011;23796;51.458;7.000;2023-03-01T10:27:49;7.57;;;4.75;;
37973;SDS011;23796;51.458;7.000;2023-03-01T10:30:41;6.95;;;4.65;;
37973;SDS011;23796;51.458;7.000;2023-03-01T10:35:40;6.38;;;4.15;;
37973;SDS011;23796;51.458;7.000;2023-03-01T10:38:11;6.25;;;4.22;;
37973;SDS011;23796;51.458;7.000;2023-03-01T10:41:12;6.50;;;4.47;;
37973;SDS011;23796;51.458;7.000;2023-03-01T10:43:42;6.93;;;4.10;;
37973;SDS011;23796;51.458;7.000;2023-03-01T10:46:29;6.57;;;4.40;;
37973;SDS011;23796;51.458;7.000;2023-03-01T10:51:45;6.25;;;4.32;;
37973;SDS011;23796;51.458;7.000;2023-03-01T10:54:19;7.57;;;4.55;;
37973;SDS011;23796;51.458;7.000;2023-03-01T10:56:53;7.72;;;4.65;;
37973;SDS011;23796;51.458;7.000;2023-03-01T11:02:34;6.47;;;3.92;;
37973;SDS011;23796;51.458;7.000;2023-03-01T11:07:27;6.65;;;4.30;;
37973;SDS011;23796;51.458;7.000;2023-03-01T11:09:53;10.07;;;5.30;;
37973;SDS011;23796;51.458;7.000;2023-03-01T11:12:21;7.20;;;5.00;;
37973;SDS011;23796;51.458;7.000;2023-03-01T11:14:48;9.15;;;4.43;;
37973;SDS011;23796;51.458;7.000;2023-03-01T11:17:27;6.43;;;4.28;;
37973;SDS011;23796;51.458;7.000;2023-03-01T11:20:01;7.22;;;4.65;;
37973;SDS011;23796;51.458;7.000;2023-03-01T11:22:31;6.28;;;4.20;;
37973;SDS011;23796;51.458;7.000;2023-03-01T11:24:59;7.53;;;4.20;;
37973;SDS011;23796;51.458;7.000;2023-03-01T11:27:27;5.80;;;3.88;;
37973;SDS011;23796;51.458;7.000;2023-03-01T11:30:04;7.30;;;3.80;;
37973;SDS011;23796;51.458;7.000;2023-03-01T11:32:34;5.63;;;3.95;;
37973;SDS011;23796;51.458;7.000;2023-03-01T11:35:27;8.40;;;4.18;;
37973;SDS011;23796;51.458;7.000;2023-03-01T11:38:02;6.30;;;4.50;;
37973;SDS011;23796;51.458;7.000;2023-03-01T11:40:39;6.30;;;4.47;;
37973;SDS011;23796;51.458;7.000;2023-03-01T11:45:59;8.93;;;4.22;;
37973;SDS011;23796;51.458;7.000;2023-03-01T11:49:03;6.07;;;4.60;;
37973;SDS011;23796;51.458;7.000;2023-03-01T11:52:07;6.32;;;4.30;;
37973;SDS011;23796;51.458;7.000;2023-03-01T12:09:03;6.60;;;3.70;;
37973;SDS011;23796;51.458;7.000;2023-03-01T12:38:50;5.95;;;4.30;;
37973;SDS011;23796;51.458;7.000;2023-03-01T12:49:41;7.55;;;4.60;;
37973;SDS011;23796;51.458;7.000;2023-03-01T12:52:33;7.20;;;4.60;;
37973;SDS011;23796;51.458;7.000;2023-03-01T12:55:06;6.53;;;4.25;;
37973;SDS011;23796;51.458;7.000;2023-03-01T12:57:47;7.47;;;4.63;;
37973;SDS011;23796;51.458;7.000;2023-03-01T13:00:53;6.22;;;4.38;;
37973;SDS011;23796;51.458;7.000;2023-03-01T13:03:29;8.98;;;4.47;;
37973;SDS011;23796;51.458;7.000;2023-03-01T13:08:29;8.15;;;4.50;;
37973;SDS011;23796;51.458;7.000;2023-03-01T13:11:10;6.80;;;3.80;;
37973;SDS011;23796;51.458;7.000;2023-03-01T13:13:44;7.85;;;4.20;;
37973;SDS011;23796;51.458;7.000;2023-03-01T13:21:42;7.25;;;4.82;;
37973;SDS011;23796;51.458;7.000;2023-03-01T13:32:31;7.55;;;4.97;;
37973;SDS011;23796;51.458;7.000;2023-03-01T13:37:42;7.35;;;4.90;;
37973;SDS011;23796;51.458;7.000;2023-03-01T13:42:41;7.88;;;4.45;;
37973;SDS011;23796;51.458;7.000;2023-03-01T13:47:52;6.60;;;4.50;;
37973;SDS011;23796;51.458;7.000;2023-03-01T13:50:33;6.10;;;4.30;;
37973;SDS011;23796;51.458;7.000;2023-03-01T13:53:10;7.00;;;4.65;;
37973;SDS011;23796;51.458;7.000;2023-03-01T13:58:43;7.47;;;4.47;;
37973;SDS011;23796;51.458;7.000;2023-03-01T14:01:26;9.43;;;5.18;;
37973;SDS011;23796;51.458;7.000;2023-03-01T14:03:58;8.25;;;4.82;;
37973;SDS011;23796;51.458;7.000;2023-03-01T14:11:52;8.43;;;5.32;;
37973;SDS011;23796;51.458;7.000;2023-03-01T14:20:09;8.52;;;5.35;;
37973;SDS011;23796;51.458;7.000;2023-03-01T14:22:44;8.32;;;5.57;;
37973;SDS011;23796;51.458;7.000;2023-03-01T14:30:43;8.48;;;5.10;;
37973;SDS011;23796;51.458;7.000;2023-03-01T14:35:52;7.40;;;4.80;;
37973;SDS011;23796;51.458;7.000;2023-03-01T14:38:29;7.38;;;5.00;;
37973;SDS011;23796;51.458;7.000;2023-03-01T14:40:58;7.15;;;4.60;;
37973;SDS011;23796;51.458;7.000;2023-03-01T14:43:27;6.57;;;5.05;;
37973;SDS011;23796;51.458;7.000;2023-03-01T14:45:55;7.18;;;4.88;;
37973;SDS011;23796;51.458;7.000;2023-03-01T14:48:21;6.72;;;4.80;;
37973;SDS011;23796;51.458;7.000;2023-03-01T14:50:48;6.95;;;4.75;;
37973;SDS011;23796;51.458;7.000;2023-03-01T14:53:22;7.75;;;4.93;;
37973;SDS011;23796;51.458;7.000;2023-03-01T14:55:51;10.82;;;5.40;;
37973;SDS011;23796;51.458;7.000;2023-03-01T14:58:20;7.10;;;4.85;;
37973;SDS011;23796;51.458;7.000;2023-03-01T15:00:54;7.35;;;4.78;;
37973;SDS011;23796;51.458;7.000;2023-03-01T15:03:35;8.13;;;5.13;;
37973;SDS011;23796;51.458;7.000;2023-03-01T15:06:09;8.32;;;4.68;;
37973;SDS011;23796;51.458;7.000;2023-03-01T15:08:37;9.07;;;5.22;;
37973;SDS011;23796;51.458;7.000;2023-03-01T15:13:38;9.43;;;5.43;;
37973;SDS011;23796;51.458;7.000;2023-03-01T15:19:25;8.48;;;5.32;;
37973;SDS011;23796;51.458;7.000;2023-03-01T15:21:46;5.78;;;4.22;;
37973;SDS011;23796;51.458;7.000;2023-03-01T15:24:17;7.28;;;5.10;;
37973;SDS011;23796;51.458;7.000;2023-03-01T15:27:00;7.63;;;5.05;;
37973;SDS011;23796;51.458;7.000;2023-03-01T15:29:31;8.43;;;5.22;;
37973;SDS011;23796;51.458;7.000;2023-03-01T15:34:33;8.95;;;5.43;;
37973;SDS011;23796;51.458;7.000;2023-03-01T15:37:06;7.38;;;5.15;;
37973;SDS011;23796;51.458;7.000;2023-03-01T15:39:59;8.88;;;5.70;;
37973;SDS011;23796;51.458;7.000;2023-03-01T15:47:43;7.03;;;5.47;;
37973;SDS011;23796;51.458;7.000;2023-03-01T15:50:29;8.20;;;5.45;;
37973;SDS011;23796;51.458;7.000;2023-03-01T15:53:00;8.70;;;5.35;;
37973;SDS011;23796;51.458;7.000;2023-03-01T15:55:36;7.03;;;4.70;;
37973;SDS011;23796;51.458;7.000;2023-03-01T15:58:18;8.73;;;5.10;;
37973;SDS011;23796;51.458;7.000;2023-03-01T16:00:48;11.05;;;5.90;;
37973;SDS011;23796;51.458;7.000;2023-03-01T16:03:22;8.52;;;4.97;;
37973;SDS011;23796;51.458;7.000;2023-03-01T16:05:48;7.38;;;4.70;;
37973;SDS011;23796;51.458;7.000;2023-03-01T16:08:15;7.38;;;5.07;;
37973;SDS011;23796;51.458;7.000;2023-03-01T16:10:43;7.40;;;5.05;;
37973;SDS011;23796;51.458;7.000;2023-03-01T16:13:14;6.40;;;4.40;;
37973;SDS011;23796;51.458;7.000;2023-03-01T16:15:40;20.08;;;5.07;;
37973;SDS011;23796;51.458;7.000;2023-03-01T16:18:06;7.88;;;4.80;;
37973;SDS011;23796;51.458;7.000;2023-03-01T16:20:35;6.93;;;4.30;;
37973;SDS011;23796;51.458;7.000;2023-03-01T16:23:01;6.22;;;4.35;;
37973;SDS011;23796;51.458;7.000;2023-03-01T16:25:33;7.20;;;4.37;;
37973;SDS011;23796;51.458;7.000;2023-03-01T16:28:00;7.80;;;4.40;;
37973;SDS011;23796;51.458;7.000;2023-03-01T16:30:29;6.20;;;3.97;;
37973;SDS011;23796;51.458;7.000;2023-03-01T16:32:55;7.47;;;4.10;;
37973;SDS011;23796;51.458;7.000;2023-03-01T16:35:21;9.52;;;4.85;;
37973;SDS011;23796;51.458;7.000;2023-03-01T16:37:49;8.18;;;5.10;;
37973;SDS011;23796;51.458;7.000;2023-03-01T16:42:45;7.97;;;5.80;;
37973;SDS011;23796;51.458;7.000;2023-03-01T16:45:14;7.97;;;4.53;;
37973;SDS011;23796;51.458;7.000;2023-03-01T16:47:43;6.90;;;4.65;;
37973;SDS011;23796;51.458;7.000;2023-03-01T16:50:13;8.85;;;5.10;;
37973;SDS011;23796;51.458;7.000;2023-03-01T16:52:38;8.15;;;4.93;;
37973;SDS011;23796;51.458;7.000;2023-03-01T16:55:05;8.70;;;5.38;;
37973;SDS011;23796;51.458;7.000;2023-03-01T16:57:35;7.72;;;4.78;;
37973;SDS011;23796;51.458;7.000;2023-03-01T17:00:03;7.75;;;4.43;;
37973;SDS011;23796;51.458;7.000;2023-03-01T17:02:34;6.60;;;4.55;;
37973;SDS011;23796;51.458;7.000;2023-03-01T17:05:00;7.18;;;3.75;;
37973;SDS011;23796;51.458;7.000;2023-03-01T17:07:27;7.90;;;4.45;;
37973;SDS011;23796;51.458;7.000;2023-03-01T17:09:54;10.43;;;5.05;;
37973;SDS011;23796;51.458;7.000;2023-03-01T17:12:19;7.50;;;4.53;;
37973;SDS011;23796;51.458;7.000;2023-03-01T17:14:45;10.68;;;4.43;;
37973;SDS011;23796;51.458;7.000;2023-03-01T17:17:13;9.07;;;5.20;;
37973;SDS011;23796;51.458;7.000;2023-03-01T17:19:38;7.25;;;4.35;;
37973;SDS011;23796;51.458;7.000;2023-03-01T17:22:10;6.75;;;4.65;;
37973;SDS011;23796;51.458;7.000;2023-03-01T17:24:39;7.75;;;4.20;;
37973;SDS011;23796;51.458;7.000;2023-03-01T17:27:06;8.60;;;4.28;;
37973;SDS011;23796;51.458;7.000;2023-03-01T17:29:32;7.45;;;4.53;;
37973;SDS011;23796;51.458;7.000;2023-03-01T17:31:58;8.32;;;5.45;;
37973;SDS011;23796;51.458;7.000;2023-03-01T17:34:24;7.40;;;4.88;;
37973;SDS011;23796;51.458;7.000;2023-03-01T17:36:50;8.32;;;4.85;;
37973;SDS011;23796;51.458;7.000;2023-03-01T17:39:19;7.95;;;4.30;;
37973;SDS011;23796;51.458;7.000;2023-03-01T17:42:00;6.82;;;4.22;;
37973;SDS011;23796;51.458;7.000;2023-03-01T17:44:26;7.28;;;4.85;;
37973;SDS011;23796;51.458;7.000;2023-03-01T17:46:54;8.13;;;4.72;;
37973;SDS011;23796;51.458;7.000;2023-03-01T17:49:22;7.32;;;4.28;;
37973;SDS011;23796;51.458;7.000;2023-03-01T17:51:48;10.95;;;4.97;;